createdAt,value
2019-03-04T00:01:16.853Z,100009.27
2019-03-04T00:03:47.354Z,100010.80
2019-03-04T00:06:17.826Z,100014.02
2019-03-04T00:08:48.334Z,100012.88
2019-03-04T00:11:18.803Z,100007.93
2019-03-04T00:13:49.282Z,100009.27
2019-03-04T00:16:19.789Z,100003.99
2019-03-04T00:18:50.249Z,99998.81
2019-03-04T00:21:20.750Z,100003.28
2019-03-04T00:23:51.202Z,100003.27
2019-03-04T00:26:21.690Z,100004.11
2019-03-04T00:28:52.176Z,99998.95
2019-03-04T00:31:22.777Z,99999.58
2019-03-04T00:33:53.400Z,99999.78
2019-03-04T00:36:23.905Z,99996.69
2019-03-04T00:38:54.410Z,99999.05
2019-03-04T00:41:24.923Z,99989.09
2019-03-04T00:43:55.377Z,99988.08
2019-03-04T00:46:27.154Z,99987.25
2019-03-04T00:48:57.613Z,99993.27
2019-03-04T00:51:28.080Z,99992.55
2019-03-04T00:53:58.578Z,99984.76
2019-03-04T00:56:29.078Z,99982.49
2019-03-04T00:58:59.576Z,99981.97
2019-03-04T01:01:30.086Z,99982.27
2019-03-04T01:04:00.565Z,99987.65
2019-03-04T01:06:31.084Z,99982.89
2019-03-04T01:09:01.541Z,99980.09
2019-03-04T01:11:32.042Z,99976.54
2019-03-04T01:14:02.510Z,99974.16
2019-03-04T01:16:33.012Z,99971.05
2019-03-04T01:19:03.526Z,99973.84
2019-03-04T01:21:33.972Z,99968.34
2019-03-04T01:24:04.534Z,99967.48
2019-03-04T01:26:35.034Z,99975.99
2019-03-04T01:29:05.624Z,99969.68
2019-03-04T01:31:36.206Z,99971.33
2019-03-04T01:34:06.692Z,99969.16
2019-03-04T01:36:37.150Z,99977.14
2019-03-04T01:39:07.992Z,99969.68
2019-03-04T01:41:38.447Z,99965.51
2019-03-04T01:44:08.920Z,99971.23
2019-03-04T01:46:39.421Z,99965.12
2019-03-04T01:49:09.926Z,99965.31
2019-03-04T01:51:40.394Z,99963.97
2019-03-04T01:54:10.903Z,99956.31
2019-03-04T01:56:41.399Z,99962.51
2019-03-04T01:59:11.852Z,99960.52
2019-03-04T02:01:42.376Z,99961.97
2019-03-04T02:04:12.848Z,99955.95
2019-03-04T02:06:43.314Z,99957.69
2019-03-04T02:09:14.228Z,99961.33
2019-03-04T02:11:44.688Z,99959.55
2019-03-04T02:14:15.136Z,99956.65
2019-03-04T02:16:45.625Z,99960.44
2019-03-04T02:19:16.077Z,99961.58
2019-03-04T02:21:46.573Z,99965.06
2019-03-04T02:24:27.227Z,99964.81
2019-03-04T02:26:59.256Z,99969.98
2019-03-04T02:29:29.748Z,99967.89
2019-03-04T02:32:00.198Z,99962.78
2019-03-04T02:34:30.686Z,99966.91
2019-03-04T02:37:01.281Z,99963.66
2019-03-04T02:39:31.753Z,99960.83
2019-03-04T02:42:02.210Z,99960.91
2019-03-04T02:44:32.721Z,99959.31
2019-03-04T02:47:03.235Z,99962.08
2019-03-04T02:49:33.674Z,99969.91
2019-03-04T02:52:04.193Z,99969.28
2019-03-04T02:54:34.649Z,99966.82
2019-03-04T02:57:05.194Z,99964.84
2019-03-04T02:59:35.685Z,99962.94
2019-03-04T03:02:08.246Z,99962.25
2019-03-04T03:04:38.777Z,99960.98
2019-03-04T03:07:09.233Z,99953.28
2019-03-04T03:09:39.686Z,99952.70
2019-03-04T03:12:10.219Z,99952.70
2019-03-04T03:14:40.738Z,99959.73
2019-03-04T03:17:11.225Z,99955.48
2019-03-04T03:19:41.735Z,99955.48
2019-03-04T03:22:12.184Z,99956.43
2019-03-04T03:24:42.670Z,99957.08
2019-03-04T03:27:13.191Z,99961.74
2019-03-04T03:29:43.617Z,99969.22
2019-03-04T03:32:14.087Z,99970.29
2019-03-04T03:34:44.575Z,99970.29
2019-03-04T03:37:15.081Z,99963.27
2019-03-04T03:39:45.590Z,99960.77
2019-03-04T03:42:18.830Z,99960.77
2019-03-04T03:44:48.240Z,99965.44
2019-03-04T03:47:18.745Z,99967.81
2019-03-04T03:49:49.196Z,99973.08
2019-03-04T03:52:19.664Z,99972.27
2019-03-04T03:54:50.159Z,99974.00
2019-03-04T03:57:20.719Z,99969.63
2019-03-04T03:59:51.211Z,99970.67
2019-03-04T04:02:21.667Z,99973.53
2019-03-04T04:04:52.177Z,99985.79
2019-03-04T04:07:22.730Z,99980.48
2019-03-04T04:09:53.768Z,99975.51
2019-03-04T04:12:24.270Z,99983.03
2019-03-04T04:14:54.724Z,99972.88
2019-03-04T04:17:25.224Z,99974.62
2019-03-04T04:19:55.677Z,99985.87
2019-03-04T04:22:26.267Z,99980.38
2019-03-04T04:24:56.817Z,99983.06
2019-03-04T04:27:27.326Z,99969.70
2019-03-04T04:29:57.793Z,99980.83
2019-03-04T04:32:28.293Z,99975.81
2019-03-04T04:34:58.791Z,99973.66
2019-03-04T04:37:29.254Z,99969.50
2019-03-04T04:39:59.857Z,99967.52
2019-03-04T04:42:30.362Z,99967.17
2019-03-04T04:45:00.870Z,99957.66
2019-03-04T04:47:31.371Z,99957.02
2019-03-04T04:50:01.825Z,99956.55
2019-03-04T04:52:32.292Z,99952.63
2019-03-04T04:55:02.818Z,99952.63
2019-03-04T04:57:33.267Z,99957.30
2019-03-04T05:00:03.933Z,99953.97
2019-03-04T05:02:34.441Z,99961.36
2019-03-04T05:05:05.118Z,99970.10
2019-03-04T05:07:35.671Z,99966.77
2019-03-04T05:10:08.681Z,99962.62
2019-03-04T05:12:39.187Z,99954.75
2019-03-04T05:15:10.864Z,99950.42
2019-03-04T05:17:41.378Z,99948.91
2019-03-04T05:20:14.289Z,99954.58
2019-03-04T05:22:44.901Z,99951.55
2019-03-04T05:25:15.495Z,99946.27
2019-03-04T05:27:45.999Z,99941.77
2019-03-04T05:30:18.540Z,99940.67
2019-03-04T05:32:49.137Z,99937.03
2019-03-04T05:35:19.789Z,99941.23
2019-03-04T05:37:50.346Z,99941.34
2019-03-04T05:40:20.864Z,99939.02
2019-03-04T05:42:51.331Z,99819.80
2019-03-04T05:45:21.932Z,99943.31
2019-03-04T05:47:52.422Z,99940.45
2019-03-04T05:50:22.918Z,99947.28
2019-03-04T05:52:53.521Z,99959.83
2019-03-04T05:55:23.979Z,99959.70
2019-03-04T05:57:54.490Z,99965.12
2019-03-04T06:00:26.260Z,99965.12
2019-03-04T06:02:56.888Z,99962.98
2019-03-04T06:05:27.370Z,99961.73
2019-03-04T06:08:00.527Z,99968.16
2019-03-04T06:10:31.023Z,99968.56
2019-03-04T06:13:01.475Z,99969.84
2019-03-04T06:15:31.941Z,99962.85
2019-03-04T06:18:02.545Z,99964.15
2019-03-04T06:20:33.045Z,99972.55
2019-03-04T06:23:03.529Z,99974.45
2019-03-04T06:25:33.989Z,99979.50
2019-03-04T06:28:04.484Z,99981.67
2019-03-04T06:30:34.974Z,99981.88
2019-03-04T06:33:05.436Z,99987.28
2019-03-04T06:35:35.929Z,99985.33
2019-03-04T06:38:06.421Z,99998.58
2019-03-04T06:40:36.882Z,99992.93
2019-03-04T06:43:07.480Z,99991.86
2019-03-04T06:45:38.078Z,99989.87
2019-03-04T06:48:08.586Z,99997.45
2019-03-04T06:50:49.392Z,99995.70
2019-03-04T06:54:02.339Z,100001.41
2019-03-04T06:56:55.731Z,100002.27
2019-03-04T07:00:11.236Z,100004.72
2019-03-04T07:02:41.717Z,100006.84
2019-03-04T07:05:48.120Z,100004.48
2019-03-04T07:09:12.208Z,100009.11
2019-03-04T07:11:49.972Z,100005.92
2019-03-04T07:14:20.537Z,100003.75
2019-03-04T07:16:51.974Z,100003.66
2019-03-04T07:19:36.595Z,100009.53
2019-03-04T07:22:07.101Z,100002.81
2019-03-04T07:24:37.553Z,100001.67
2019-03-04T07:27:08.037Z,100002.38
2019-03-04T07:29:38.509Z,100002.05
2019-03-04T07:32:09.073Z,99997.25
2019-03-04T07:34:39.542Z,99991.74
2019-03-04T07:37:09.642Z,99998.32
2019-03-04T07:39:40.083Z,99995.13
2019-03-04T07:42:10.547Z,99993.02
2019-03-04T07:44:41.053Z,99984.50
2019-03-04T07:47:11.569Z,99985.55
2019-03-04T07:49:42.584Z,99979.55
2019-03-04T07:52:13.089Z,99982.38
2019-03-04T07:54:43.600Z,99975.76
2019-03-04T07:57:14.072Z,99974.81
2019-03-04T07:59:44.597Z,99972.02
2019-03-04T08:02:15.061Z,99972.05
2019-03-04T08:04:45.527Z,99968.36
2019-03-04T08:07:51.040Z,99970.66
2019-03-04T08:11:16.022Z,99972.03
2019-03-04T08:13:54.017Z,99971.94
2019-03-04T08:16:24.479Z,99966.62
2019-03-04T08:18:54.969Z,99967.75
2019-03-04T08:21:28.512Z,99968.03
2019-03-04T08:23:59.018Z,99963.91
2019-03-04T08:26:29.757Z,99964.16
2019-03-04T08:29:00.273Z,99961.02
2019-03-04T08:31:30.843Z,99963.23
2019-03-04T08:34:01.353Z,99953.64
2019-03-04T08:36:31.820Z,99951.39
2019-03-04T08:39:02.326Z,99953.22
2019-03-04T08:41:32.799Z,99953.37
2019-03-04T08:44:03.310Z,99954.95
2019-03-04T08:46:33.788Z,99947.41
2019-03-04T08:49:04.279Z,99942.70
2019-03-04T08:51:34.745Z,99943.64
2019-03-04T08:54:05.250Z,99945.48
2019-03-04T08:56:35.742Z,99939.37
2019-03-04T08:59:06.199Z,99941.94
2019-03-04T09:01:36.701Z,99934.92
2019-03-04T09:04:07.211Z,99928.94
2019-03-04T09:06:37.775Z,99927.42
2019-03-04T09:09:09.117Z,99928.61
2019-03-04T09:11:39.685Z,99916.69
2019-03-04T09:14:10.194Z,99921.47
2019-03-04T09:16:40.760Z,99925.81
2019-03-04T09:19:11.269Z,99921.51
2019-03-04T09:21:41.745Z,99916.31
2019-03-04T09:24:12.342Z,99908.34
2019-03-04T09:26:42.802Z,99908.42
2019-03-04T09:29:13.295Z,99901.22
2019-03-04T09:31:43.754Z,99899.22
2019-03-04T09:34:14.400Z,99898.36
2019-03-04T09:36:44.862Z,99889.91
2019-03-04T09:39:17.002Z,99894.48
2019-03-04T09:41:47.505Z,99887.27
2019-03-04T09:44:17.974Z,99886.31
2019-03-04T09:46:48.483Z,99882.87
2019-03-04T09:49:18.940Z,99873.14
2019-03-04T09:51:49.403Z,99872.66
2019-03-04T09:54:19.858Z,99859.89
2019-03-04T09:56:50.360Z,99859.52
2019-03-04T09:59:20.822Z,99861.95
2019-03-04T10:01:55.187Z,99846.34
2019-03-04T10:05:17.098Z,99835.77
2019-03-04T10:08:13.536Z,99831.46
2019-03-04T10:11:20.742Z,99828.39
2019-03-04T10:14:22.734Z,99820.09
2019-03-04T10:17:12.811Z,99811.09
2019-03-04T10:19:55.790Z,99811.79
2019-03-04T10:22:48.725Z,99809.95
2019-03-04T10:26:11.595Z,99800.53
2019-03-04T10:29:19.987Z,99794.17
2019-03-04T10:32:13.218Z,99793.45
2019-03-04T10:35:19.778Z,99779.74
2019-03-04T10:38:22.843Z,99780.97
2019-03-04T10:41:23.110Z,99772.17
2019-03-04T10:44:28.900Z,99770.94
2019-03-04T10:47:02.611Z,99760.64
2019-03-04T10:49:35.353Z,99756.45
2019-03-04T10:52:06.083Z,99752.43
2019-03-04T10:54:36.546Z,99743.58
2019-03-04T10:57:07.062Z,99742.58
2019-03-04T10:59:37.523Z,99736.92
2019-03-04T11:02:08.185Z,99729.69
2019-03-04T11:04:38.681Z,99725.30
2019-03-04T11:07:09.274Z,99717.14
2019-03-04T11:09:39.737Z,99721.52
2019-03-04T11:12:10.342Z,99708.93
2019-03-04T11:14:40.812Z,99699.81
2019-03-04T11:17:11.326Z,99706.96
2019-03-04T11:19:41.842Z,99692.00
2019-03-04T11:22:12.405Z,99692.08
2019-03-04T11:24:42.913Z,99684.75
2019-03-04T11:27:13.489Z,99681.46
2019-03-04T11:29:43.994Z,99675.77
2019-03-04T11:32:14.510Z,99671.09
2019-03-04T11:34:44.974Z,99563.23
2019-03-04T11:37:15.478Z,99664.23
2019-03-04T11:40:00.481Z,99645.78
2019-03-04T11:42:31.077Z,99647.48
2019-03-04T11:45:01.683Z,99638.28
2019-03-04T11:47:32.148Z,99634.27
2019-03-04T11:50:02.621Z,99625.86
2019-03-04T11:52:33.138Z,99614.44
2019-03-04T11:55:03.642Z,99619.09
2019-03-04T11:57:34.280Z,99616.94
2019-03-04T12:00:09.210Z,99609.23
2019-03-04T12:02:39.815Z,99607.39
2019-03-04T12:05:10.998Z,99600.91
2019-03-04T12:07:41.590Z,99588.68
2019-03-04T12:10:15.498Z,99586.52
2019-03-04T12:12:46.227Z,99572.38
2019-03-04T12:15:17.457Z,99571.86
2019-03-04T12:17:48.024Z,99571.92
2019-03-04T12:20:18.730Z,99567.36
2019-03-04T12:22:49.288Z,99561.93
2019-03-04T12:25:20.065Z,99559.22
2019-03-04T12:27:50.524Z,99555.43
2019-03-04T12:30:21.247Z,99552.45
2019-03-04T12:32:52.749Z,99548.37
2019-03-04T12:35:23.451Z,99544.58
2019-03-04T12:37:53.899Z,99539.69
2019-03-04T12:40:24.644Z,99529.91
2019-03-04T12:42:55.109Z,99531.58
2019-03-04T12:45:33.909Z,99523.95
2019-03-04T12:47:57.881Z,99527.27
2019-03-04T12:50:28.536Z,99512.52
2019-03-04T12:52:59.049Z,99513.59
2019-03-04T12:55:29.603Z,99508.19
2019-03-04T12:58:00.159Z,99501.37
2019-03-04T13:00:31.938Z,99492.11
2019-03-04T13:03:02.402Z,99493.80
2019-03-04T13:05:33.008Z,99483.44
2019-03-04T13:08:03.512Z,99474.44
2019-03-04T13:10:34.165Z,99474.17
2019-03-04T13:13:04.792Z,99475.82
2019-03-04T13:15:35.446Z,99472.83
2019-03-04T13:18:05.983Z,99464.08
2019-03-04T13:20:36.540Z,99465.98
2019-03-04T13:23:08.132Z,99418.78
2019-03-04T13:25:38.667Z,99456.16
2019-03-04T13:28:09.164Z,99457.55
2019-03-04T13:30:40.025Z,99456.17
2019-03-04T13:33:10.743Z,99348.91
2019-03-04T13:35:41.457Z,99448.55
2019-03-04T13:38:12.133Z,99440.38
2019-03-04T13:40:44.045Z,99432.73
2019-03-04T13:43:14.539Z,99430.27
2019-03-04T13:45:45.183Z,99426.98
2019-03-04T13:48:15.774Z,99430.26
2019-03-04T13:50:46.586Z,99427.25
2019-03-04T13:53:17.046Z,99421.53
2019-03-04T13:55:47.534Z,99428.07
2019-03-04T13:58:18.078Z,99419.88
2019-03-04T14:00:48.567Z,99419.88
2019-03-04T14:03:19.018Z,99417.16
2019-03-04T14:05:49.470Z,99411.95
2019-03-04T14:08:20.267Z,99406.78
2019-03-04T14:10:50.864Z,99407.86
2019-03-04T14:13:21.321Z,99406.23
2019-03-04T14:15:51.846Z,99404.59
2019-03-04T14:18:22.307Z,99402.69
2019-03-04T14:20:52.798Z,99393.38
2019-03-04T14:23:23.287Z,99393.67
2019-03-04T14:25:53.781Z,99392.85
2019-03-04T14:28:24.232Z,99389.31
2019-03-04T14:30:54.720Z,99381.94
2019-03-04T14:33:25.171Z,99385.20
2019-03-04T14:35:55.673Z,99377.84
2019-03-04T14:38:26.174Z,99380.57
2019-03-04T14:40:56.619Z,99375.66
2019-03-04T14:43:27.123Z,99381.66
2019-03-04T14:45:57.630Z,99381.67
2019-03-04T14:48:28.085Z,99379.75
2019-03-04T14:50:58.531Z,99377.31
2019-03-04T14:53:29.041Z,99377.03
2019-03-04T14:56:01.238Z,99375.91
2019-03-04T14:58:31.863Z,99373.46
2019-03-04T15:01:02.533Z,99381.10
2019-03-04T15:03:33.000Z,99377.30
2019-03-04T15:06:06.927Z,99367.73
2019-03-04T15:08:35.692Z,99369.91
2019-03-04T15:11:06.191Z,99363.66
2019-03-04T15:13:36.689Z,99359.84
2019-03-04T15:16:08.195Z,99360.11
2019-03-04T15:18:38.692Z,99352.22
2019-03-04T15:21:09.767Z,99353.03
2019-03-04T15:23:40.251Z,99352.22
2019-03-04T15:26:10.806Z,99349.47
2019-03-04T15:28:41.301Z,99349.20
2019-03-04T15:31:11.751Z,99344.58
2019-03-04T15:33:42.340Z,99341.83
2019-03-04T15:36:12.784Z,99334.77
2019-03-04T15:38:43.246Z,99332.83
2019-03-04T15:41:13.730Z,99342.09
2019-03-04T15:43:44.192Z,99332.02
2019-03-04T15:46:14.730Z,99333.65
2019-03-04T15:48:45.299Z,99334.47
2019-03-04T15:51:15.895Z,99338.02
2019-03-04T15:53:46.396Z,99336.07
2019-03-04T15:56:16.894Z,99335.78
2019-03-04T15:58:47.345Z,99335.23
2019-03-04T16:01:18.021Z,99340.14
2019-03-04T16:03:48.506Z,99333.52
2019-03-04T16:06:19.210Z,99334.05
2019-03-04T16:08:49.725Z,99333.48
2019-03-04T16:11:20.279Z,99326.94
2019-03-04T16:13:55.160Z,99324.44
2019-03-04T16:16:22.962Z,99325.23
2019-03-04T16:18:53.473Z,99318.94
2019-03-04T16:21:24.045Z,99319.17
2019-03-04T16:23:54.526Z,99323.76
2019-03-04T16:26:25.027Z,99331.06
2019-03-04T16:28:55.523Z,99331.55
2019-03-04T16:31:27.724Z,99335.02
2019-03-04T16:33:58.237Z,99325.73
2019-03-04T16:36:28.805Z,99339.02
2019-03-04T16:38:59.362Z,99341.41
2019-03-04T16:41:29.997Z,99345.16
2019-03-04T16:44:00.471Z,99339.61
2019-03-04T16:46:30.939Z,99343.61
2019-03-04T16:49:01.537Z,99347.34
2019-03-04T16:51:32.101Z,99344.83
2019-03-04T16:54:02.603Z,99348.23
2019-03-04T16:56:33.060Z,99310.77
2019-03-04T16:59:03.660Z,99350.08
2019-03-04T17:01:34.160Z,99350.52
2019-03-04T17:04:04.767Z,99341.76
2019-03-04T17:06:35.325Z,99346.84
2019-03-04T17:09:18.752Z,99350.02
2019-03-04T17:11:49.319Z,99352.41
2019-03-04T17:14:19.933Z,99355.34
2019-03-04T17:16:50.379Z,99357.23
2019-03-04T17:19:20.829Z,99356.06
2019-03-04T17:21:51.402Z,99356.27
2019-03-04T17:24:21.907Z,99359.70
2019-03-04T17:26:52.381Z,99350.48
2019-03-04T17:29:22.879Z,99356.40
2019-03-04T17:31:53.685Z,99351.43
2019-03-04T17:34:24.180Z,99348.94
2019-03-04T17:36:54.686Z,99355.97
2019-03-04T17:39:25.143Z,99354.55
2019-03-04T17:41:55.828Z,99349.34
2019-03-04T17:44:26.313Z,99356.06
2019-03-04T17:46:56.816Z,99356.52
2019-03-04T17:49:27.272Z,99354.29
2019-03-04T17:51:57.771Z,99352.84
2019-03-04T17:54:28.242Z,99353.90
2019-03-04T17:56:58.721Z,99355.16
2019-03-04T17:59:29.223Z,99351.30
2019-03-04T18:01:59.691Z,99352.09
2019-03-04T18:04:30.169Z,99346.63
2019-03-04T18:07:00.677Z,99343.02
2019-03-04T18:09:31.170Z,99344.06
2019-03-04T18:12:01.719Z,99347.77
2019-03-04T18:14:32.182Z,99356.62
2019-03-04T18:17:02.690Z,99358.24
2019-03-04T18:19:33.195Z,99354.38
2019-03-04T18:22:03.681Z,99362.98
2019-03-04T18:24:34.147Z,99357.19
2019-03-04T18:27:11.961Z,99360.88
2019-03-04T18:30:11.813Z,99367.31
2019-03-04T18:33:31.754Z,99370.11
2019-03-04T18:36:35.607Z,99369.70
2019-03-04T18:39:43.371Z,99374.69
2019-03-04T18:42:50.455Z,99375.35
2019-03-04T18:45:50.318Z,99378.17
2019-03-04T18:48:58.719Z,99377.97
2019-03-04T18:51:30.716Z,99375.92
2019-03-04T18:54:12.414Z,99375.11
2019-03-04T18:56:43.089Z,99376.77
2019-03-04T18:59:13.590Z,99378.54
2019-03-04T19:01:44.255Z,99387.01
2019-03-04T19:04:14.862Z,99381.50
2019-03-04T19:06:45.337Z,99388.36
2019-03-04T19:09:16.065Z,99384.66
2019-03-04T19:11:46.566Z,99391.20
2019-03-04T19:14:17.028Z,99394.72
2019-03-04T19:16:47.533Z,99389.63
2019-03-04T19:19:18.000Z,99394.53
2019-03-04T19:21:48.706Z,99392.28
2019-03-04T19:24:19.162Z,99393.91
2019-03-04T19:26:49.657Z,99390.03
2019-03-04T19:29:20.122Z,99391.97
2019-03-04T19:31:50.642Z,99392.55
2019-03-04T19:34:21.291Z,99397.15
2019-03-04T19:36:51.753Z,99388.95
2019-03-04T19:39:22.373Z,99392.42
2019-03-04T19:41:52.845Z,99386.16
2019-03-04T19:44:23.345Z,99386.33
2019-03-04T19:46:53.914Z,99399.44
2019-03-04T19:49:24.425Z,99400.20
2019-03-04T19:51:54.887Z,99398.98
2019-03-04T19:54:25.483Z,99397.04
2019-03-04T19:56:55.924Z,99398.25
2019-03-04T19:59:26.425Z,99399.27
2019-03-04T20:01:57.018Z,99405.30
2019-03-04T20:04:27.688Z,99406.60
2019-03-04T20:06:58.301Z,99400.72
2019-03-04T20:09:28.806Z,99409.45
2019-03-04T20:11:59.426Z,99402.36
2019-03-04T20:14:29.992Z,99397.56
2019-03-04T20:17:00.489Z,99398.50
2019-03-04T20:19:31.054Z,99401.62
2019-03-04T20:22:01.549Z,99404.93
2019-03-04T20:24:32.052Z,99402.49
2019-03-04T20:27:02.552Z,99405.61
2019-03-04T20:29:33.036Z,99406.36
2019-03-04T20:32:03.504Z,99401.03
2019-03-04T20:34:34.001Z,99406.59
2019-03-04T20:37:04.709Z,99399.50
2019-03-04T20:39:35.176Z,99393.94
2019-03-04T20:42:05.677Z,99397.65
2019-03-04T20:44:36.355Z,99404.77
2019-03-04T20:47:06.863Z,99398.62
2019-03-04T20:49:37.324Z,99393.09
2019-03-04T20:52:07.813Z,99397.61
2019-03-04T20:54:38.315Z,99396.91
2019-03-04T20:57:08.768Z,99392.11
2019-03-04T20:59:39.257Z,99396.30
2019-03-04T21:02:09.810Z,99396.70
2019-03-04T21:04:40.471Z,99395.62
2019-03-04T21:07:11.458Z,99399.83
2019-03-04T21:09:42.152Z,99395.34
2019-03-04T21:12:12.756Z,99390.23
2019-03-04T21:14:43.358Z,99393.67
2019-03-04T21:17:13.979Z,99386.80
2019-03-04T21:19:44.435Z,99386.41
2019-03-04T21:22:15.038Z,99384.99
2019-03-04T21:24:45.624Z,99390.32
2019-03-04T21:27:16.364Z,99392.48
2019-03-04T21:30:26.159Z,99389.19
2019-03-04T21:33:08.416Z,99389.65
2019-03-04T21:36:05.128Z,99393.23
2019-03-04T21:38:35.961Z,99379.97
2019-03-04T21:41:50.967Z,99377.03
2019-03-04T21:44:44.929Z,99370.37
2019-03-04T21:47:25.976Z,99366.39
2019-03-04T21:49:57.482Z,99366.47
2019-03-04T21:53:08.687Z,99367.95
2019-03-04T21:55:50.450Z,99364.27
2019-03-04T21:58:21.034Z,99357.67
2019-03-04T22:00:59.089Z,99352.42
2019-03-04T22:03:32.694Z,99360.44
2019-03-04T22:06:03.603Z,99359.75
2019-03-04T22:08:34.207Z,99358.83
2019-03-04T22:11:05.029Z,99358.47
2019-03-04T22:13:35.649Z,99364.20
2019-03-04T22:16:06.226Z,99364.34
2019-03-04T22:18:36.869Z,99364.55
2019-03-04T22:21:16.294Z,99363.34
2019-03-04T22:23:39.857Z,99370.39
2019-03-04T22:26:10.333Z,99373.95
2019-03-04T22:28:40.864Z,99367.44
2019-03-04T22:31:11.324Z,99374.09
2019-03-04T22:33:41.835Z,99366.67
2019-03-04T22:36:12.465Z,99364.40
2019-03-04T22:38:43.129Z,99372.19
2019-03-04T22:41:13.939Z,99372.84
2019-03-04T22:43:44.535Z,99375.22
2019-03-04T22:46:14.973Z,99372.25
2019-03-04T22:48:45.450Z,99369.48
2019-03-04T22:51:15.971Z,99367.78
2019-03-04T22:53:46.433Z,99369.66
2019-03-04T22:56:16.949Z,99367.09
2019-03-04T22:58:47.426Z,99362.56
2019-03-04T23:01:44.757Z,99365.26
2019-03-04T23:04:35.512Z,99370.89
2019-03-04T23:07:21.074Z,99371.33
2019-03-04T23:10:22.203Z,99372.48
2019-03-04T23:13:08.969Z,99373.94
2019-03-04T23:15:39.452Z,99375.64
2019-03-04T23:18:09.987Z,99381.19
2019-03-04T23:20:40.459Z,99371.98
2019-03-04T23:23:10.927Z,99370.73
2019-03-04T23:25:41.400Z,99372.46
2019-03-04T23:28:11.842Z,99370.48
2019-03-04T23:30:42.312Z,99374.33
2019-03-04T23:33:12.968Z,99371.06
2019-03-04T23:35:43.401Z,99384.88
2019-03-04T23:38:13.830Z,99377.64
2019-03-04T23:40:44.404Z,99382.28
2019-03-04T23:43:14.849Z,99380.70
2019-03-04T23:45:45.319Z,99375.32
2019-03-04T23:48:15.733Z,99372.95
2019-03-04T23:50:46.195Z,99383.63
2019-03-04T23:53:16.808Z,99390.76
2019-03-04T23:55:47.263Z,99283.09
2019-03-04T23:58:17.710Z,99395.80
